sensor_id;sensor_type;location;lat;lon;timestamp;P1;durP1;ratioP1;P2;durP2;ratioP2
55497;SDS011;41357;52.806;18.268;2023-09-19T00:01:42;26.42;;;12.90;;
55497;SDS011;41357;52.806;18.268;2023-09-19T00:04:12;16.58;;;12.07;;
55497;SDS011;41357;52.806;18.268;2023-09-19T00:06:39;22.13;;;13.35;;
55497;SDS011;41357;52.806;18.268;2023-09-19T00:09:06;20.85;;;11.80;;
55497;SDS011;41357;52.806;18.268;2023-09-19T00:11:36;24.85;;;12.88;;
55497;SDS011;41357;52.806;18.268;2023-09-19T00:14:03;23.27;;;12.27;;
55497;SDS011;41357;52.806;18.268;2023-09-19T00:16:30;27.20;;;13.13;;
55497;SDS011;41357;52.806;18.268;2023-09-19T00:18:57;22.90;;;12.90;;
55497;SDS011;41357;52.806;18.268;2023-09-19T00:21:28;15.80;;;12.30;;
55497;SDS011;41357;52.806;18.268;2023-09-19T00:23:54;16.70;;;11.82;;
55497;SDS011;41357;52.806;18.268;2023-09-19T00:26:20;17.00;;;11.93;;
55497;SDS011;41357;52.806;18.268;2023-09-19T00:28:46;17.02;;;11.95;;
55497;SDS011;41357;52.806;18.268;2023-09-19T00:31:12;19.90;;;12.32;;
55497;SDS011;41357;52.806;18.268;2023-09-19T00:33:39;19.98;;;12.80;;
55497;SDS011;41357;52.806;18.268;2023-09-19T00:36:05;22.35;;;12.32;;
55497;SDS011;41357;52.806;18.268;2023-09-19T00:38:31;16.33;;;11.00;;
55497;SDS011;41357;52.806;18.268;2023-09-19T00:40:57;19.13;;;11.52;;
55497;SDS011;41357;52.806;18.268;2023-09-19T00:43:25;16.63;;;11.23;;
55497;SDS011;41357;52.806;18.268;2023-09-19T00:45:52;15.25;;;10.45;;
55497;SDS011;41357;52.806;18.268;2023-09-19T00:48:22;22.88;;;11.38;;
55497;SDS011;41357;52.806;18.268;2023-09-19T00:50:49;17.60;;;11.13;;
55497;SDS011;41357;52.806;18.268;2023-09-19T00:53:17;14.27;;;9.98;;
55497;SDS011;41357;52.806;18.268;2023-09-19T00:55:46;17.48;;;10.13;;
55497;SDS011;41357;52.806;18.268;2023-09-19T00:58:12;13.82;;;9.95;;
55497;SDS011;41357;52.806;18.268;2023-09-19T01:00:38;14.43;;;9.65;;
55497;SDS011;41357;52.806;18.268;2023-09-19T01:03:07;18.65;;;9.70;;
55497;SDS011;41357;52.806;18.268;2023-09-19T01:05:34;12.00;;;8.60;;
55497;SDS011;41357;52.806;18.268;2023-09-19T01:08:01;15.35;;;9.15;;
55497;SDS011;41357;52.806;18.268;2023-09-19T01:10:27;14.07;;;8.40;;
55497;SDS011;41357;52.806;18.268;2023-09-19T01:17:59;11.60;;;8.02;;
55497;SDS011;41357;52.806;18.268;2023-09-19T01:20:32;14.25;;;8.57;;
55497;SDS011;41357;52.806;18.268;2023-09-19T01:30:56;14.13;;;7.72;;
55497;SDS011;41357;52.806;18.268;2023-09-19T01:33:26;12.43;;;7.65;;
55497;SDS011;41357;52.806;18.268;2023-09-19T01:35:52;9.85;;;7.10;;
55497;SDS011;41357;52.806;18.268;2023-09-19T01:38:22;11.80;;;7.90;;
55497;SDS011;41357;52.806;18.268;2023-09-19T01:40:56;14.20;;;7.05;;
55497;SDS011;41357;52.806;18.268;2023-09-19T01:43:28;13.52;;;7.65;;
55497;SDS011;41357;52.806;18.268;2023-09-19T01:46:03;11.35;;;7.10;;
55497;SDS011;41357;52.806;18.268;2023-09-19T01:51:02;13.15;;;7.63;;
55497;SDS011;41357;52.806;18.268;2023-09-19T01:53:35;11.38;;;7.13;;
55497;SDS011;41357;52.806;18.268;2023-09-19T01:56:02;14.07;;;7.68;;
55497;SDS011;41357;52.806;18.268;2023-09-19T01:58:45;13.48;;;7.93;;
55497;SDS011;41357;52.806;18.268;2023-09-19T02:01:14;11.10;;;6.75;;
55497;SDS011;41357;52.806;18.268;2023-09-19T02:03:41;13.35;;;6.63;;
55497;SDS011;41357;52.806;18.268;2023-09-19T02:06:13;8.15;;;5.20;;
55497;SDS011;41357;52.806;18.268;2023-09-19T02:08:40;7.65;;;5.53;;
55497;SDS011;41357;52.806;18.268;2023-09-19T02:11:07;6.75;;;4.57;;
55497;SDS011;41357;52.806;18.268;2023-09-19T02:13:33;8.05;;;5.05;;
55497;SDS011;41357;52.806;18.268;2023-09-19T02:15:59;14.38;;;5.38;;
55497;SDS011;41357;52.806;18.268;2023-09-19T02:18:25;10.65;;;5.60;;
55497;SDS011;41357;52.806;18.268;2023-09-19T02:20:53;11.50;;;5.47;;
55497;SDS011;41357;52.806;18.268;2023-09-19T02:23:21;7.03;;;4.35;;
55497;SDS011;41357;52.806;18.268;2023-09-19T02:25:53;9.48;;;5.18;;
55497;SDS011;41357;52.806;18.268;2023-09-19T02:28:20;5.95;;;4.43;;
55497;SDS011;41357;52.806;18.268;2023-09-19T02:30:47;9.88;;;4.82;;
55497;SDS011;41357;52.806;18.268;2023-09-19T02:33:14;12.25;;;6.18;;
55497;SDS011;41357;52.806;18.268;2023-09-19T02:35:40;9.43;;;4.65;;
55497;SDS011;41357;52.806;18.268;2023-09-19T02:38:07;7.25;;;4.10;;
55497;SDS011;41357;52.806;18.268;2023-09-19T02:40:36;10.93;;;4.00;;
55497;SDS011;41357;52.806;18.268;2023-09-19T02:43:02;7.30;;;3.90;;
55497;SDS011;41357;52.806;18.268;2023-09-19T02:45:30;7.93;;;3.70;;
55497;SDS011;41357;52.806;18.268;2023-09-19T02:47:56;10.05;;;3.92;;
55497;SDS011;41357;52.806;18.268;2023-09-19T02:50:23;14.00;;;4.60;;
55497;SDS011;41357;52.806;18.268;2023-09-19T02:52:49;8.77;;;4.53;;
55497;SDS011;41357;52.806;18.268;2023-09-19T02:55:16;7.22;;;4.03;;
55497;SDS011;41357;52.806;18.268;2023-09-19T02:57:49;7.78;;;3.78;;
55497;SDS011;41357;52.806;18.268;2023-09-19T03:00:16;5.50;;;3.00;;
55497;SDS011;41357;52.806;18.268;2023-09-19T03:02:49;7.75;;;3.35;;
55497;SDS011;41357;52.806;18.268;2023-09-19T03:05:16;7.05;;;3.47;;
55497;SDS011;41357;52.806;18.268;2023-09-19T03:07:43;9.32;;;3.38;;
55497;SDS011;41357;52.806;18.268;2023-09-19T03:10:11;8.23;;;4.00;;
55497;SDS011;41357;52.806;18.268;2023-09-19T03:12:37;5.55;;;3.40;;
55497;SDS011;41357;52.806;18.268;2023-09-19T03:15:05;6.57;;;3.13;;
55497;SDS011;41357;52.806;18.268;2023-09-19T03:17:33;8.98;;;3.63;;
55497;SDS011;41357;52.806;18.268;2023-09-19T03:20:00;8.23;;;3.13;;
55497;SDS011;41357;52.806;18.268;2023-09-19T03:22:26;5.45;;;3.63;;
55497;SDS011;41357;52.806;18.268;2023-09-19T03:24:53;5.15;;;3.17;;
55497;SDS011;41357;52.806;18.268;2023-09-19T03:27:19;6.15;;;3.38;;
55497;SDS011;41357;52.806;18.268;2023-09-19T03:29:46;11.75;;;2.95;;
55497;SDS011;41357;52.806;18.268;2023-09-19T03:32:12;9.60;;;3.10;;
55497;SDS011;41357;52.806;18.268;2023-09-19T03:34:38;7.00;;;3.17;;
55497;SDS011;41357;52.806;18.268;2023-09-19T03:37:09;7.57;;;2.77;;
55497;SDS011;41357;52.806;18.268;2023-09-19T03:39:35;6.85;;;2.80;;
55497;SDS011;41357;52.806;18.268;2023-09-19T03:42:02;5.47;;;2.70;;
55497;SDS011;41357;52.806;18.268;2023-09-19T03:44:29;17.52;;;3.08;;
55497;SDS011;41357;52.806;18.268;2023-09-19T03:46:55;3.97;;;2.45;;
55497;SDS011;41357;52.806;18.268;2023-09-19T03:49:22;5.45;;;3.53;;
55497;SDS011;41357;52.806;18.268;2023-09-19T03:51:48;4.32;;;2.60;;
55497;SDS011;41357;52.806;18.268;2023-09-19T03:54:14;5.35;;;3.10;;
55497;SDS011;41357;52.806;18.268;2023-09-19T03:56:42;6.63;;;3.20;;
55497;SDS011;41357;52.806;18.268;2023-09-19T03:59:09;4.88;;;2.60;;
55497;SDS011;41357;52.806;18.268;2023-09-19T04:01:35;6.38;;;2.60;;
55497;SDS011;41357;52.806;18.268;2023-09-19T04:04:01;5.57;;;2.40;;
55497;SDS011;41357;52.806;18.268;2023-09-19T04:06:33;6.95;;;2.90;;
55497;SDS011;41357;52.806;18.268;2023-09-19T04:09:03;5.63;;;2.97;;
55497;SDS011;41357;52.806;18.268;2023-09-19T04:11:29;8.88;;;4.40;;
55497;SDS011;41357;52.806;18.268;2023-09-19T04:13:56;10.57;;;3.95;;
55497;SDS011;41357;52.806;18.268;2023-09-19T04:16:22;8.65;;;3.38;;
55497;SDS011;41357;52.806;18.268;2023-09-19T04:18:48;6.57;;;3.10;;
55497;SDS011;41357;52.806;18.268;2023-09-19T04:21:14;9.65;;;2.70;;
55497;SDS011;41357;52.806;18.268;2023-09-19T04:23:40;5.18;;;2.33;;
55497;SDS011;41357;52.806;18.268;2023-09-19T04:26:07;7.93;;;2.78;;
55497;SDS011;41357;52.806;18.268;2023-09-19T04:28:33;6.15;;;2.67;;
55497;SDS011;41357;52.806;18.268;2023-09-19T04:31:03;6.63;;;2.33;;
55497;SDS011;41357;52.806;18.268;2023-09-19T04:33:29;5.53;;;2.50;;
55497;SDS011;41357;52.806;18.268;2023-09-19T04:35:55;3.92;;;2.38;;
55497;SDS011;41357;52.806;18.268;2023-09-19T04:38:21;6.05;;;2.30;;
55497;SDS011;41357;52.806;18.268;2023-09-19T04:40:48;3.72;;;1.90;;
55497;SDS011;41357;52.806;18.268;2023-09-19T04:43:14;7.80;;;2.40;;
55497;SDS011;41357;52.806;18.268;2023-09-19T04:45:40;4.15;;;2.25;;
55497;SDS011;41357;52.806;18.268;2023-09-19T04:48:06;4.72;;;2.33;;
55497;SDS011;41357;52.806;18.268;2023-09-19T04:50:33;5.50;;;2.10;;
55497;SDS011;41357;52.806;18.268;2023-09-19T04:52:59;5.15;;;2.90;;
55497;SDS011;41357;52.806;18.268;2023-09-19T04:55:26;4.93;;;2.50;;
55497;SDS011;41357;52.806;18.268;2023-09-19T04:57:52;7.13;;;2.50;;
55497;SDS011;41357;52.806;18.268;2023-09-19T05:00:20;6.25;;;2.65;;
55497;SDS011;41357;52.806;18.268;2023-09-19T05:02:49;4.75;;;2.70;;
55497;SDS011;41357;52.806;18.268;2023-09-19T05:05:17;4.55;;;2.45;;
55497;SDS011;41357;52.806;18.268;2023-09-19T05:07:44;8.55;;;2.70;;
55497;SDS011;41357;52.806;18.268;2023-09-19T05:10:10;5.22;;;2.70;;
55497;SDS011;41357;52.806;18.268;2023-09-19T05:12:39;9.00;;;2.70;;
55497;SDS011;41357;52.806;18.268;2023-09-19T05:15:06;6.32;;;2.33;;
55497;SDS011;41357;52.806;18.268;2023-09-19T05:17:32;6.65;;;2.40;;
55497;SDS011;41357;52.806;18.268;2023-09-19T05:19:59;4.03;;;2.55;;
55497;SDS011;41357;52.806;18.268;2023-09-19T05:22:46;4.53;;;2.50;;
55497;SDS011;41357;52.806;18.268;2023-09-19T05:25:12;4.20;;;2.35;;
55497;SDS011;41357;52.806;18.268;2023-09-19T05:27:43;6.20;;;3.13;;
55497;SDS011;41357;52.806;18.268;2023-09-19T05:30:10;13.23;;;3.10;;
55497;SDS011;41357;52.806;18.268;2023-09-19T05:32:39;4.47;;;2.58;;
55497;SDS011;41357;52.806;18.268;2023-09-19T05:35:05;4.45;;;2.50;;
55497;SDS011;41357;52.806;18.268;2023-09-19T05:37:34;4.90;;;3.30;;
55497;SDS011;41357;52.806;18.268;2023-09-19T05:40:02;9.00;;;3.97;;
55497;SDS011;41357;52.806;18.268;2023-09-19T05:42:32;8.85;;;3.72;;
55497;SDS011;41357;52.806;18.268;2023-09-19T05:44:58;6.13;;;3.33;;
55497;SDS011;41357;52.806;18.268;2023-09-19T05:47:24;9.93;;;4.60;;
55497;SDS011;41357;52.806;18.268;2023-09-19T05:49:50;8.00;;;3.95;;
55497;SDS011;41357;52.806;18.268;2023-09-19T05:52:17;7.93;;;4.13;;
55497;SDS011;41357;52.806;18.268;2023-09-19T05:54:44;6.15;;;3.78;;
55497;SDS011;41357;52.806;18.268;2023-09-19T05:57:10;7.43;;;3.55;;
55497;SDS011;41357;52.806;18.268;2023-09-19T05:59:37;5.53;;;3.88;;
55497;SDS011;41357;52.806;18.268;2023-09-19T06:02:08;9.95;;;3.50;;
55497;SDS011;41357;52.806;18.268;2023-09-19T06:04:36;10.43;;;4.03;;
55497;SDS011;41357;52.806;18.268;2023-09-19T06:07:05;15.63;;;4.63;;
55497;SDS011;41357;52.806;18.268;2023-09-19T06:09:31;6.57;;;3.92;;
55497;SDS011;41357;52.806;18.268;2023-09-19T06:11:58;6.55;;;3.75;;
55497;SDS011;41357;52.806;18.268;2023-09-19T06:14:28;5.97;;;3.00;;
55497;SDS011;41357;52.806;18.268;2023-09-19T06:16:55;4.20;;;2.90;;
55497;SDS011;41357;52.806;18.268;2023-09-19T06:19:22;10.55;;;3.80;;
55497;SDS011;41357;52.806;18.268;2023-09-19T06:21:50;6.20;;;3.13;;
55497;SDS011;41357;52.806;18.268;2023-09-19T06:24:16;5.72;;;3.00;;
55497;SDS011;41357;52.806;18.268;2023-09-19T06:26:42;4.50;;;2.92;;
55497;SDS011;41357;52.806;18.268;2023-09-19T06:29:09;5.78;;;3.13;;
55497;SDS011;41357;52.806;18.268;2023-09-19T06:31:35;4.38;;;2.53;;
55497;SDS011;41357;52.806;18.268;2023-09-19T06:34:01;7.65;;;3.03;;
55497;SDS011;41357;52.806;18.268;2023-09-19T06:36:28;5.10;;;2.42;;
55497;SDS011;41357;52.806;18.268;2023-09-19T06:38:54;4.90;;;2.55;;
55497;SDS011;41357;52.806;18.268;2023-09-19T06:41:20;3.30;;;2.20;;
55497;SDS011;41357;52.806;18.268;2023-09-19T06:43:50;4.32;;;2.53;;
55497;SDS011;41357;52.806;18.268;2023-09-19T06:46:18;6.57;;;3.03;;
55497;SDS011;41357;52.806;18.268;2023-09-19T06:48:44;7.78;;;2.80;;
55497;SDS011;41357;52.806;18.268;2023-09-19T06:51:12;4.68;;;2.97;;
55497;SDS011;41357;52.806;18.268;2023-09-19T06:53:41;7.07;;;2.83;;
55497;SDS011;41357;52.806;18.268;2023-09-19T06:56:07;6.45;;;3.35;;
55497;SDS011;41357;52.806;18.268;2023-09-19T06:58:33;4.30;;;3.10;;
55497;SDS011;41357;52.806;18.268;2023-09-19T07:00:59;4.43;;;3.05;;
55497;SDS011;41357;52.806;18.268;2023-09-19T07:03:26;7.15;;;2.90;;
55497;SDS011;41357;52.806;18.268;2023-09-19T07:05:53;5.97;;;3.13;;
55497;SDS011;41357;52.806;18.268;2023-09-19T07:08:21;5.45;;;3.35;;
55497;SDS011;41357;52.806;18.268;2023-09-19T07:10:47;7.80;;;3.10;;
55497;SDS011;41357;52.806;18.268;2023-09-19T07:13:14;7.72;;;3.55;;
55497;SDS011;41357;52.806;18.268;2023-09-19T07:15:41;10.57;;;4.00;;
55497;SDS011;41357;52.806;18.268;2023-09-19T07:18:15;4.00;;;3.17;;
55497;SDS011;41357;52.806;18.268;2023-09-19T07:20:45;7.45;;;3.80;;
55497;SDS011;41357;52.806;18.268;2023-09-19T07:23:15;6.03;;;3.20;;
55497;SDS011;41357;52.806;18.268;2023-09-19T07:25:43;6.57;;;3.45;;
55497;SDS011;41357;52.806;18.268;2023-09-19T07:28:09;6.63;;;3.28;;
55497;SDS011;41357;52.806;18.268;2023-09-19T07:30:35;6.03;;;3.40;;
55497;SDS011;41357;52.806;18.268;2023-09-19T07:33:06;6.25;;;2.92;;
55497;SDS011;41357;52.806;18.268;2023-09-19T07:35:32;4.85;;;2.83;;
55497;SDS011;41357;52.806;18.268;2023-09-19T07:37:59;4.22;;;2.92;;
55497;SDS011;41357;52.806;18.268;2023-09-19T07:40:28;7.13;;;2.92;;
55497;SDS011;41357;52.806;18.268;2023-09-19T07:42:55;7.90;;;3.55;;
55497;SDS011;41357;52.806;18.268;2023-09-19T07:45:21;9.07;;;3.20;;
55497;SDS011;41357;52.806;18.268;2023-09-19T07:47:48;6.00;;;3.38;;
55497;SDS011;41357;52.806;18.268;2023-09-19T07:50:15;5.32;;;3.30;;
55497;SDS011;41357;52.806;18.268;2023-09-19T07:52:41;4.38;;;3.00;;
55497;SDS011;41357;52.806;18.268;2023-09-19T07:55:08;7.25;;;3.10;;
55497;SDS011;41357;52.806;18.268;2023-09-19T07:57:37;5.20;;;3.45;;
55497;SDS011;41357;52.806;18.268;2023-09-19T08:00:03;6.22;;;3.58;;
55497;SDS011;41357;52.806;18.268;2023-09-19T08:02:35;5.05;;;3.53;;
55497;SDS011;41357;52.806;18.268;2023-09-19T08:05:03;7.82;;;3.83;;
55497;SDS011;41357;52.806;18.268;2023-09-19T08:07:38;6.07;;;4.15;;
55497;SDS011;41357;52.806;18.268;2023-09-19T08:10:04;4.82;;;3.13;;
55497;SDS011;41357;52.806;18.268;2023-09-19T08:12:38;7.97;;;3.50;;
55497;SDS011;41357;52.806;18.268;2023-09-19T08:15:11;4.97;;;3.38;;
55497;SDS011;41357;52.806;18.268;2023-09-19T08:17:37;7.40;;;3.10;;
55497;SDS011;41357;52.806;18.268;2023-09-19T08:20:03;6.15;;;2.97;;
55497;SDS011;41357;52.806;18.268;2023-09-19T08:22:30;7.72;;;3.03;;
55497;SDS011;41357;52.806;18.268;2023-09-19T08:24:59;7.68;;;3.38;;
55497;SDS011;41357;52.806;18.268;2023-09-19T08:27:29;11.30;;;3.27;;
55497;SDS011;41357;52.806;18.268;2023-09-19T08:29:56;6.10;;;2.90;;
55497;SDS011;41357;52.806;18.268;2023-09-19T08:32:22;4.55;;;3.00;;
55497;SDS011;41357;52.806;18.268;2023-09-19T08:34:50;6.20;;;3.13;;
55497;SDS011;41357;52.806;18.268;2023-09-19T08:37:16;5.18;;;2.80;;
55497;SDS011;41357;52.806;18.268;2023-09-19T08:39:44;4.45;;;3.78;;
55497;SDS011;41357;52.806;18.268;2023-09-19T08:42:10;5.30;;;3.00;;
55497;SDS011;41357;52.806;18.268;2023-09-19T08:44:38;4.93;;;2.90;;
55497;SDS011;41357;52.806;18.268;2023-09-19T08:47:09;4.53;;;2.85;;
55497;SDS011;41357;52.806;18.268;2023-09-19T08:49:41;7.63;;;2.45;;
55497;SDS011;41357;52.806;18.268;2023-09-19T08:54:50;11.57;;;2.50;;
55497;SDS011;41357;52.806;18.268;2023-09-19T08:57:18;4.32;;;2.40;;
55497;SDS011;41357;52.806;18.268;2023-09-19T08:59:47;7.68;;;2.60;;
55497;SDS011;41357;52.806;18.268;2023-09-19T09:02:17;4.15;;;2.17;;
55497;SDS011;41357;52.806;18.268;2023-09-19T09:04:45;3.53;;;2.40;;
55497;SDS011;41357;52.806;18.268;2023-09-19T09:07:12;4.85;;;2.22;;
55497;SDS011;41357;52.806;18.268;2023-09-19T09:09:39;4.40;;;2.25;;
55497;SDS011;41357;52.806;18.268;2023-09-19T09:12:11;3.05;;;1.60;;
55497;SDS011;41357;52.806;18.268;2023-09-19T09:14:47;2.20;;;1.95;;
55497;SDS011;41357;52.806;18.268;2023-09-19T09:17:17;8.02;;;2.00;;
55497;SDS011;41357;52.806;18.268;2023-09-19T09:19:47;2.75;;;1.83;;
55497;SDS011;41357;52.806;18.268;2023-09-19T09:22:13;4.97;;;1.92;;
55497;SDS011;41357;52.806;18.268;2023-09-19T09:27:20;5.20;;;1.77;;
55497;SDS011;41357;52.806;18.268;2023-09-19T09:29:49;4.05;;;1.65;;
55497;SDS011;41357;52.806;18.268;2023-09-19T09:32:22;2.97;;;1.95;;
55497;SDS011;41357;52.806;18.268;2023-09-19T09:34:50;3.35;;;1.63;;
55497;SDS011;41357;52.806;18.268;2023-09-19T09:37:17;2.28;;;1.60;;
55497;SDS011;41357;52.806;18.268;2023-09-19T09:40:01;3.90;;;1.60;;
55497;SDS011;41357;52.806;18.268;2023-09-19T09:42:42;2.85;;;1.80;;
55497;SDS011;41357;52.806;18.268;2023-09-19T09:45:18;5.80;;;1.90;;
55497;SDS011;41357;52.806;18.268;2023-09-19T09:47:53;2.33;;;1.58;;
55497;SDS011;41357;52.806;18.268;2023-09-19T09:52:57;2.70;;;1.23;;
55497;SDS011;41357;52.806;18.268;2023-09-19T09:55:56;9.07;;;2.90;;
55497;SDS011;41357;52.806;18.268;2023-09-19T09:58:17;3.38;;;1.63;;
55497;SDS011;41357;52.806;18.268;2023-09-19T10:00:53;2.28;;;1.25;;
55497;SDS011;41357;52.806;18.268;2023-09-19T10:03:32;4.28;;;1.70;;
55497;SDS011;41357;52.806;18.268;2023-09-19T10:05:59;2.53;;;1.60;;
55497;SDS011;41357;52.806;18.268;2023-09-19T10:08:34;2.40;;;1.60;;
55497;SDS011;41357;52.806;18.268;2023-09-19T10:11:01;1.63;;;1.27;;
55497;SDS011;41357;52.806;18.268;2023-09-19T10:13:40;5.80;;;1.50;;
55497;SDS011;41357;52.806;18.268;2023-09-19T10:16:07;2.50;;;1.48;;
55497;SDS011;41357;52.806;18.268;2023-09-19T10:18:36;4.35;;;1.80;;
55497;SDS011;41357;52.806;18.268;2023-09-19T10:21:04;4.50;;;1.65;;
55497;SDS011;41357;52.806;18.268;2023-09-19T10:23:33;4.50;;;1.63;;
55497;SDS011;41357;52.806;18.268;2023-09-19T10:26:01;4.45;;;1.50;;
55497;SDS011;41357;52.806;18.268;2023-09-19T10:28:28;3.22;;;1.60;;
55497;SDS011;41357;52.806;18.268;2023-09-19T10:30:55;4.97;;;1.60;;
55497;SDS011;41357;52.806;18.268;2023-09-19T10:33:22;2.88;;;1.40;;
55497;SDS011;41357;52.806;18.268;2023-09-19T10:35:51;8.63;;;1.40;;
55497;SDS011;41357;52.806;18.268;2023-09-19T10:38:24;6.32;;;2.03;;
55497;SDS011;41357;52.806;18.268;2023-09-19T10:40:51;2.55;;;1.17;;
55497;SDS011;41357;52.806;18.268;2023-09-19T10:43:18;2.33;;;1.20;;
55497;SDS011;41357;52.806;18.268;2023-09-19T10:45:46;6.82;;;1.20;;
55497;SDS011;41357;52.806;18.268;2023-09-19T10:48:15;1.98;;;1.20;;
55497;SDS011;41357;52.806;18.268;2023-09-19T10:53:10;1.52;;;1.15;;
55497;SDS011;41357;52.806;18.268;2023-09-19T10:55:37;3.05;;;2.03;;
55497;SDS011;41357;52.806;18.268;2023-09-19T10:58:04;3.05;;;1.45;;
55497;SDS011;41357;52.806;18.268;2023-09-19T11:03:21;3.80;;;1.27;;
55497;SDS011;41357;52.806;18.268;2023-09-19T11:11:40;1.67;;;1.20;;
55497;SDS011;41357;52.806;18.268;2023-09-19T11:22:13;1.98;;;1.17;;
55497;SDS011;41357;52.806;18.268;2023-09-19T11:24:39;4.05;;;1.40;;
55497;SDS011;41357;52.806;18.268;2023-09-19T11:27:10;6.18;;;1.88;;
55497;SDS011;41357;52.806;18.268;2023-09-19T11:29:38;2.75;;;1.60;;
55497;SDS011;41357;52.806;18.268;2023-09-19T11:32:05;4.28;;;1.50;;
55497;SDS011;41357;52.806;18.268;2023-09-19T11:39:39;2.70;;;1.10;;
55497;SDS011;41357;52.806;18.268;2023-09-19T11:44:47;4.68;;;1.38;;
55497;SDS011;41357;52.806;18.268;2023-09-19T11:47:14;1.92;;;1.10;;
55497;SDS011;41357;52.806;18.268;2023-09-19T11:49:44;2.53;;;1.20;;
55497;SDS011;41357;52.806;18.268;2023-09-19T11:52:11;6.20;;;1.75;;
55497;SDS011;41357;52.806;18.268;2023-09-19T11:54:39;1.77;;;1.23;;
55497;SDS011;41357;52.806;18.268;2023-09-19T11:57:06;5.95;;;1.42;;
55497;SDS011;41357;52.806;18.268;2023-09-19T11:59:33;3.75;;;1.13;;
55497;SDS011;41357;52.806;18.268;2023-09-19T12:02:04;3.85;;;1.25;;
55497;SDS011;41357;52.806;18.268;2023-09-19T12:07:07;1.45;;;1.08;;
55497;SDS011;41357;52.806;18.268;2023-09-19T12:09:40;3.83;;;1.05;;
55497;SDS011;41357;52.806;18.268;2023-09-19T12:12:19;2.03;;;1.17;;
55497;SDS011;41357;52.806;18.268;2023-09-19T12:14:49;3.60;;;1.17;;
55497;SDS011;41357;52.806;18.268;2023-09-19T12:17:18;2.83;;;1.88;;
55497;SDS011;41357;52.806;18.268;2023-09-19T12:19:55;8.10;;;1.00;;
55497;SDS011;41357;52.806;18.268;2023-09-19T12:22:21;6.22;;;1.20;;
55497;SDS011;41357;52.806;18.268;2023-09-19T12:24:47;3.03;;;0.98;;
55497;SDS011;41357;52.806;18.268;2023-09-19T12:27:15;2.08;;;0.82;;
55497;SDS011;41357;52.806;18.268;2023-09-19T12:29:46;3.83;;;1.02;;
55497;SDS011;41357;52.806;18.268;2023-09-19T12:32:19;3.55;;;0.90;;
55497;SDS011;41357;52.806;18.268;2023-09-19T12:34:59;2.75;;;1.20;;
55497;SDS011;41357;52.806;18.268;2023-09-19T12:37:32;2.90;;;1.27;;
55497;SDS011;41357;52.806;18.268;2023-09-19T12:40:08;2.88;;;1.40;;
55497;SDS011;41357;52.806;18.268;2023-09-19T12:42:42;3.35;;;0.95;;
55497;SDS011;41357;52.806;18.268;2023-09-19T12:45:09;4.22;;;1.00;;
55497;SDS011;41357;52.806;18.268;2023-09-19T12:47:38;2.95;;;1.00;;
55497;SDS011;41357;52.806;18.268;2023-09-19T12:50:09;8.77;;;1.48;;
55497;SDS011;41357;52.806;18.268;2023-09-19T12:52:39;6.15;;;1.70;;
55497;SDS011;41357;52.806;18.268;2023-09-19T12:55:06;2.58;;;1.30;;
55497;SDS011;41357;52.806;18.268;2023-09-19T12:57:35;3.25;;;1.27;;
55497;SDS011;41357;52.806;18.268;2023-09-19T13:00:02;3.22;;;1.00;;
55497;SDS011;41357;52.806;18.268;2023-09-19T13:02:31;2.58;;;1.10;;
55497;SDS011;41357;52.806;18.268;2023-09-19T13:04:58;3.95;;;1.17;;
55497;SDS011;41357;52.806;18.268;2023-09-19T13:10:07;4.47;;;1.08;;
55497;SDS011;41357;52.806;18.268;2023-09-19T13:12:35;4.13;;;1.08;;
55497;SDS011;41357;52.806;18.268;2023-09-19T13:15:11;9.65;;;1.45;;
55497;SDS011;41357;52.806;18.268;2023-09-19T13:17:47;5.60;;;1.30;;
55497;SDS011;41357;52.806;18.268;2023-09-19T13:22:53;2.83;;;0.80;;
55497;SDS011;41357;52.806;18.268;2023-09-19T13:27:50;3.78;;;1.30;;
55497;SDS011;41357;52.806;18.268;2023-09-19T13:30:17;1.77;;;1.20;;
55497;SDS011;41357;52.806;18.268;2023-09-19T13:32:43;1.65;;;1.02;;
55497;SDS011;41357;52.806;18.268;2023-09-19T13:35:12;4.53;;;1.33;;
55497;SDS011;41357;52.806;18.268;2023-09-19T13:37:39;3.35;;;1.13;;
55497;SDS011;41357;52.806;18.268;2023-09-19T13:42:34;3.78;;;1.30;;
55497;SDS011;41357;52.806;18.268;2023-09-19T13:45:02;4.85;;;1.27;;
55497;SDS011;41357;52.806;18.268;2023-09-19T13:47:29;2.42;;;1.45;;
55497;SDS011;41357;52.806;18.268;2023-09-19T13:49:55;5.25;;;1.45;;
55497;SDS011;41357;52.806;18.268;2023-09-19T13:52:22;3.92;;;1.30;;
55497;SDS011;41357;52.806;18.268;2023-09-19T13:54:51;3.88;;;1.20;;
55497;SDS011;41357;52.806;18.268;2023-09-19T13:57:22;3.72;;;1.33;;
55497;SDS011;41357;52.806;18.268;2023-09-19T13:59:48;6.97;;;1.60;;
55497;SDS011;41357;52.806;18.268;2023-09-19T14:02:15;3.38;;;1.75;;
55497;SDS011;41357;52.806;18.268;2023-09-19T14:04:43;2.67;;;1.40;;
55497;SDS011;41357;52.806;18.268;2023-09-19T14:07:09;2.58;;;1.45;;
55497;SDS011;41357;52.806;18.268;2023-09-19T14:09:36;5.78;;;1.23;;
55497;SDS011;41357;52.806;18.268;2023-09-19T14:12:03;3.97;;;1.70;;
55497;SDS011;41357;52.806;18.268;2023-09-19T14:14:29;3.25;;;1.65;;
55497;SDS011;41357;52.806;18.268;2023-09-19T14:16:55;2.75;;;1.35;;
55497;SDS011;41357;52.806;18.268;2023-09-19T14:19:21;1.60;;;1.10;;
55497;SDS011;41357;52.806;18.268;2023-09-19T14:21:47;8.02;;;1.58;;
55497;SDS011;41357;52.806;18.268;2023-09-19T14:24:17;4.22;;;1.40;;
55497;SDS011;41357;52.806;18.268;2023-09-19T14:26:44;3.40;;;1.52;;
55497;SDS011;41357;52.806;18.268;2023-09-19T14:29:10;6.63;;;1.75;;
55497;SDS011;41357;52.806;18.268;2023-09-19T14:31:37;4.15;;;1.58;;
55497;SDS011;41357;52.806;18.268;2023-09-19T14:34:06;3.22;;;1.33;;
55497;SDS011;41357;52.806;18.268;2023-09-19T14:36:35;4.70;;;1.58;;
55497;SDS011;41357;52.806;18.268;2023-09-19T14:39:01;3.50;;;1.55;;
55497;SDS011;41357;52.806;18.268;2023-09-19T14:41:28;4.57;;;1.60;;
55497;SDS011;41357;52.806;18.268;2023-09-19T14:43:56;3.30;;;1.50;;
55497;SDS011;41357;52.806;18.268;2023-09-19T14:46:22;2.88;;;1.40;;
55497;SDS011;41357;52.806;18.268;2023-09-19T14:48:52;2.42;;;1.60;;
55497;SDS011;41357;52.806;18.268;2023-09-19T14:51:18;4.75;;;1.70;;
55497;SDS011;41357;52.806;18.268;2023-09-19T14:53:45;6.95;;;1.63;;
55497;SDS011;41357;52.806;18.268;2023-09-19T14:56:21;5.03;;;1.77;;
55497;SDS011;41357;52.806;18.268;2023-09-19T14:58:48;6.22;;;1.63;;
55497;SDS011;41357;52.806;18.268;2023-09-19T15:01:15;3.20;;;1.55;;
55497;SDS011;41357;52.806;18.268;2023-09-19T15:03:41;6.32;;;1.60;;
55497;SDS011;41357;52.806;18.268;2023-09-19T15:06:08;3.67;;;2.00;;
55497;SDS011;41357;52.806;18.268;2023-09-19T15:08:36;5.00;;;2.25;;
55497;SDS011;41357;52.806;18.268;2023-09-19T15:11:06;7.40;;;1.83;;
55497;SDS011;41357;52.806;18.268;2023-09-19T15:13:32;4.63;;;1.70;;
55497;SDS011;41357;52.806;18.268;2023-09-19T15:16:01;5.90;;;1.90;;
55497;SDS011;41357;52.806;18.268;2023-09-19T15:18:28;5.82;;;2.00;;
55497;SDS011;41357;52.806;18.268;2023-09-19T15:20:56;3.15;;;1.70;;
55497;SDS011;41357;52.806;18.268;2023-09-19T15:23:22;4.10;;;1.80;;
55497;SDS011;41357;52.806;18.268;2023-09-19T15:25:48;4.75;;;1.80;;
55497;SDS011;41357;52.806;18.268;2023-09-19T15:28:14;4.13;;;1.98;;
55497;SDS011;41357;52.806;18.268;2023-09-19T15:30:41;4.43;;;1.90;;
55497;SDS011;41357;52.806;18.268;2023-09-19T15:33:07;2.88;;;1.73;;
55497;SDS011;41357;52.806;18.268;2023-09-19T15:35:33;5.65;;;2.50;;
55497;SDS011;41357;52.806;18.268;2023-09-19T15:38:01;4.70;;;1.90;;
55497;SDS011;41357;52.806;18.268;2023-09-19T15:40:27;4.10;;;1.80;;